sensor_id;sensor_type;location;lat;lon;timestamp;P1;durP1;ratioP1;P2;durP2;ratioP2
46835;SDS011;32573;51.290;6.926;2023-04-26T00:01:29;2.33;;;1.10;;
46835;SDS011;32573;51.290;6.926;2023-04-26T00:03:59;2.78;;;1.23;;
46835;SDS011;32573;51.290;6.926;2023-04-26T00:06:30;3.03;;;1.33;;
46835;SDS011;32573;51.290;6.926;2023-04-26T00:08:59;2.72;;;1.10;;
46835;SDS011;32573;51.290;6.926;2023-04-26T00:11:28;2.50;;;1.23;;
46835;SDS011;32573;51.290;6.926;2023-04-26T00:13:56;2.38;;;1.17;;
46835;SDS011;32573;51.290;6.926;2023-04-26T00:16:25;2.95;;;1.30;;
46835;SDS011;32573;51.290;6.926;2023-04-26T00:18:54;3.25;;;1.45;;
46835;SDS011;32573;51.290;6.926;2023-04-26T00:21:23;2.83;;;1.13;;
46835;SDS011;32573;51.290;6.926;2023-04-26T00:23:54;2.75;;;1.30;;
46835;SDS011;32573;51.290;6.926;2023-04-26T00:26:23;3.33;;;1.40;;
46835;SDS011;32573;51.290;6.926;2023-04-26T00:28:52;2.40;;;1.15;;
46835;SDS011;32573;51.290;6.926;2023-04-26T00:31:21;4.00;;;1.27;;
46835;SDS011;32573;51.290;6.926;2023-04-26T00:33:50;2.60;;;1.10;;
46835;SDS011;32573;51.290;6.926;2023-04-26T00:36:19;2.15;;;1.20;;
46835;SDS011;32573;51.290;6.926;2023-04-26T00:38:47;3.05;;;1.33;;
46835;SDS011;32573;51.290;6.926;2023-04-26T00:41:18;3.08;;;1.20;;
46835;SDS011;32573;51.290;6.926;2023-04-26T00:43:46;2.30;;;1.10;;
46835;SDS011;32573;51.290;6.926;2023-04-26T00:46:15;2.65;;;1.20;;
46835;SDS011;32573;51.290;6.926;2023-04-26T00:48:44;2.70;;;1.25;;
46835;SDS011;32573;51.290;6.926;2023-04-26T00:51:14;2.67;;;1.20;;
46835;SDS011;32573;51.290;6.926;2023-04-26T00:53:42;2.40;;;1.10;;
46835;SDS011;32573;51.290;6.926;2023-04-26T00:56:11;2.15;;;1.10;;
46835;SDS011;32573;51.290;6.926;2023-04-26T00:58:43;3.75;;;1.20;;
46835;SDS011;32573;51.290;6.926;2023-04-26T01:01:12;2.95;;;1.20;;
46835;SDS011;32573;51.290;6.926;2023-04-26T01:03:41;2.83;;;1.25;;
46835;SDS011;32573;51.290;6.926;2023-04-26T01:06:11;3.05;;;1.20;;
46835;SDS011;32573;51.290;6.926;2023-04-26T01:08:40;3.45;;;1.30;;
46835;SDS011;32573;51.290;6.926;2023-04-26T01:11:09;2.45;;;1.20;;
46835;SDS011;32573;51.290;6.926;2023-04-26T01:13:38;2.20;;;1.10;;
46835;SDS011;32573;51.290;6.926;2023-04-26T01:16:10;2.03;;;1.10;;
46835;SDS011;32573;51.290;6.926;2023-04-26T01:18:41;2.22;;;1.20;;
46835;SDS011;32573;51.290;6.926;2023-04-26T01:21:11;3.08;;;1.30;;
46835;SDS011;32573;51.290;6.926;2023-04-26T01:23:48;3.75;;;1.30;;
46835;SDS011;32573;51.290;6.926;2023-04-26T01:26:17;2.38;;;1.15;;
46835;SDS011;32573;51.290;6.926;2023-04-26T01:28:47;3.33;;;1.20;;
46835;SDS011;32573;51.290;6.926;2023-04-26T01:31:16;2.42;;;1.20;;
46835;SDS011;32573;51.290;6.926;2023-04-26T01:33:44;2.60;;;1.15;;
46835;SDS011;32573;51.290;6.926;2023-04-26T01:36:13;2.65;;;1.10;;
46835;SDS011;32573;51.290;6.926;2023-04-26T01:38:42;2.53;;;1.15;;
46835;SDS011;32573;51.290;6.926;2023-04-26T01:41:12;2.50;;;1.20;;
46835;SDS011;32573;51.290;6.926;2023-04-26T01:43:40;2.70;;;1.20;;
46835;SDS011;32573;51.290;6.926;2023-04-26T01:46:09;3.13;;;1.30;;
46835;SDS011;32573;51.290;6.926;2023-04-26T01:48:39;2.65;;;1.30;;
46835;SDS011;32573;51.290;6.926;2023-04-26T01:51:07;3.30;;;1.40;;
46835;SDS011;32573;51.290;6.926;2023-04-26T01:53:37;3.13;;;1.35;;
46835;SDS011;32573;51.290;6.926;2023-04-26T01:56:05;2.70;;;1.20;;
46835;SDS011;32573;51.290;6.926;2023-04-26T01:58:37;3.65;;;1.48;;
46835;SDS011;32573;51.290;6.926;2023-04-26T02:01:07;2.90;;;1.30;;
46835;SDS011;32573;51.290;6.926;2023-04-26T02:03:36;3.38;;;1.27;;
46835;SDS011;32573;51.290;6.926;2023-04-26T02:06:05;3.47;;;1.50;;
46835;SDS011;32573;51.290;6.926;2023-04-26T02:08:34;2.90;;;1.23;;
46835;SDS011;32573;51.290;6.926;2023-04-26T02:11:03;3.22;;;1.10;;
46835;SDS011;32573;51.290;6.926;2023-04-26T02:13:31;4.00;;;1.30;;
46835;SDS011;32573;51.290;6.926;2023-04-26T02:16:02;2.90;;;1.30;;
46835;SDS011;32573;51.290;6.926;2023-04-26T02:18:31;3.20;;;1.25;;
46835;SDS011;32573;51.290;6.926;2023-04-26T02:21:00;2.83;;;1.30;;
46835;SDS011;32573;51.290;6.926;2023-04-26T02:23:30;4.70;;;1.48;;
46835;SDS011;32573;51.290;6.926;2023-04-26T02:26:01;3.05;;;1.20;;
46835;SDS011;32573;51.290;6.926;2023-04-26T02:28:30;4.50;;;1.67;;
46835;SDS011;32573;51.290;6.926;2023-04-26T02:30:59;4.78;;;1.70;;
46835;SDS011;32573;51.290;6.926;2023-04-26T02:33:30;4.53;;;1.50;;
46835;SDS011;32573;51.290;6.926;2023-04-26T02:36:01;4.35;;;1.60;;
46835;SDS011;32573;51.290;6.926;2023-04-26T02:38:31;3.63;;;1.55;;
46835;SDS011;32573;51.290;6.926;2023-04-26T02:41:02;4.38;;;1.58;;
46835;SDS011;32573;51.290;6.926;2023-04-26T02:43:32;4.40;;;1.42;;
46835;SDS011;32573;51.290;6.926;2023-04-26T02:46:02;4.38;;;1.60;;
46835;SDS011;32573;51.290;6.926;2023-04-26T02:48:34;4.07;;;1.52;;
46835;SDS011;32573;51.290;6.926;2023-04-26T02:51:03;4.72;;;1.60;;
46835;SDS011;32573;51.290;6.926;2023-04-26T02:53:32;3.40;;;1.33;;
46835;SDS011;32573;51.290;6.926;2023-04-26T02:56:01;4.10;;;1.65;;
46835;SDS011;32573;51.290;6.926;2023-04-26T02:58:29;4.72;;;1.58;;
46835;SDS011;32573;51.290;6.926;2023-04-26T03:00:58;3.22;;;1.40;;
46835;SDS011;32573;51.290;6.926;2023-04-26T03:03:31;3.72;;;1.50;;
46835;SDS011;32573;51.290;6.926;2023-04-26T03:06:00;4.57;;;1.70;;
46835;SDS011;32573;51.290;6.926;2023-04-26T03:08:30;3.50;;;1.60;;
46835;SDS011;32573;51.290;6.926;2023-04-26T03:11:00;4.18;;;1.52;;
46835;SDS011;32573;51.290;6.926;2023-04-26T03:13:30;3.15;;;1.40;;
46835;SDS011;32573;51.290;6.926;2023-04-26T03:15:59;3.50;;;1.33;;
46835;SDS011;32573;51.290;6.926;2023-04-26T03:18:27;5.40;;;1.80;;
46835;SDS011;32573;51.290;6.926;2023-04-26T03:20:58;3.42;;;1.40;;
46835;SDS011;32573;51.290;6.926;2023-04-26T03:23:27;4.15;;;1.50;;
46835;SDS011;32573;51.290;6.926;2023-04-26T03:25:55;4.63;;;1.77;;
46835;SDS011;32573;51.290;6.926;2023-04-26T03:28:24;4.88;;;1.55;;
46835;SDS011;32573;51.290;6.926;2023-04-26T03:30:53;3.65;;;1.60;;
46835;SDS011;32573;51.290;6.926;2023-04-26T03:33:22;3.97;;;1.63;;
46835;SDS011;32573;51.290;6.926;2023-04-26T03:35:50;3.70;;;1.50;;
46835;SDS011;32573;51.290;6.926;2023-04-26T03:38:21;4.25;;;1.50;;
46835;SDS011;32573;51.290;6.926;2023-04-26T03:40:50;3.30;;;1.67;;
46835;SDS011;32573;51.290;6.926;2023-04-26T03:43:18;3.78;;;1.45;;
46835;SDS011;32573;51.290;6.926;2023-04-26T03:45:48;3.35;;;1.50;;
46835;SDS011;32573;51.290;6.926;2023-04-26T03:48:16;4.38;;;1.70;;
46835;SDS011;32573;51.290;6.926;2023-04-26T03:50:45;4.20;;;1.60;;
46835;SDS011;32573;51.290;6.926;2023-04-26T03:53:14;4.40;;;1.90;;
46835;SDS011;32573;51.290;6.926;2023-04-26T03:55:44;3.30;;;1.60;;
46835;SDS011;32573;51.290;6.926;2023-04-26T03:58:13;4.00;;;1.70;;
46835;SDS011;32573;51.290;6.926;2023-04-26T04:00:42;4.43;;;1.75;;
46835;SDS011;32573;51.290;6.926;2023-04-26T04:03:11;3.80;;;1.60;;
46835;SDS011;32573;51.290;6.926;2023-04-26T04:05:40;3.72;;;1.83;;
46835;SDS011;32573;51.290;6.926;2023-04-26T04:08:08;4.78;;;1.90;;
46835;SDS011;32573;51.290;6.926;2023-04-26T04:10:37;3.60;;;1.60;;
46835;SDS011;32573;51.290;6.926;2023-04-26T04:13:07;3.63;;;1.52;;
46835;SDS011;32573;51.290;6.926;2023-04-26T04:15:37;3.70;;;1.55;;
46835;SDS011;32573;51.290;6.926;2023-04-26T04:18:05;4.75;;;1.88;;
46835;SDS011;32573;51.290;6.926;2023-04-26T04:20:34;4.85;;;1.90;;
46835;SDS011;32573;51.290;6.926;2023-04-26T04:23:03;4.82;;;2.22;;
46835;SDS011;32573;51.290;6.926;2023-04-26T04:25:34;3.50;;;1.77;;
46835;SDS011;32573;51.290;6.926;2023-04-26T04:28:08;4.32;;;1.80;;
46835;SDS011;32573;51.290;6.926;2023-04-26T04:30:37;3.88;;;1.58;;
46835;SDS011;32573;51.290;6.926;2023-04-26T04:33:06;4.28;;;2.08;;
46835;SDS011;32573;51.290;6.926;2023-04-26T04:35:35;5.28;;;2.10;;
46835;SDS011;32573;51.290;6.926;2023-04-26T04:38:04;5.70;;;2.17;;
46835;SDS011;32573;51.290;6.926;2023-04-26T04:40:34;3.88;;;1.80;;
46835;SDS011;32573;51.290;6.926;2023-04-26T04:43:02;4.15;;;2.13;;
46835;SDS011;32573;51.290;6.926;2023-04-26T04:45:33;3.85;;;1.73;;
46835;SDS011;32573;51.290;6.926;2023-04-26T04:48:04;5.28;;;2.38;;
46835;SDS011;32573;51.290;6.926;2023-04-26T04:50:34;13.15;;;5.97;;
46835;SDS011;32573;51.290;6.926;2023-04-26T04:53:03;10.05;;;4.72;;
46835;SDS011;32573;51.290;6.926;2023-04-26T04:55:31;7.53;;;3.53;;
46835;SDS011;32573;51.290;6.926;2023-04-26T04:58:01;9.38;;;4.45;;
46835;SDS011;32573;51.290;6.926;2023-04-26T05:00:33;14.25;;;6.13;;
46835;SDS011;32573;51.290;6.926;2023-04-26T05:03:14;13.52;;;6.53;;
46835;SDS011;32573;51.290;6.926;2023-04-26T05:05:44;14.68;;;7.07;;
46835;SDS011;32573;51.290;6.926;2023-04-26T05:08:13;13.77;;;6.53;;
46835;SDS011;32573;51.290;6.926;2023-04-26T05:10:44;13.65;;;5.30;;
46835;SDS011;32573;51.290;6.926;2023-04-26T05:13:13;9.63;;;4.20;;
46835;SDS011;32573;51.290;6.926;2023-04-26T05:15:45;8.30;;;3.80;;
46835;SDS011;32573;51.290;6.926;2023-04-26T05:18:15;7.97;;;3.30;;
46835;SDS011;32573;51.290;6.926;2023-04-26T05:20:44;7.30;;;2.88;;
46835;SDS011;32573;51.290;6.926;2023-04-26T05:23:13;6.78;;;2.88;;
46835;SDS011;32573;51.290;6.926;2023-04-26T05:25:43;6.72;;;2.97;;
46835;SDS011;32573;51.290;6.926;2023-04-26T05:28:30;6.55;;;2.95;;
46835;SDS011;32573;51.290;6.926;2023-04-26T05:31:33;5.28;;;2.47;;
46835;SDS011;32573;51.290;6.926;2023-04-26T05:34:09;5.82;;;2.65;;
46835;SDS011;32573;51.290;6.926;2023-04-26T05:36:39;6.13;;;2.90;;
46835;SDS011;32573;51.290;6.926;2023-04-26T05:39:08;5.28;;;2.60;;
46835;SDS011;32573;51.290;6.926;2023-04-26T05:41:38;6.47;;;3.03;;
46835;SDS011;32573;51.290;6.926;2023-04-26T05:44:07;6.00;;;2.60;;
46835;SDS011;32573;51.290;6.926;2023-04-26T05:46:38;5.82;;;2.78;;
46835;SDS011;32573;51.290;6.926;2023-04-26T05:49:09;6.15;;;2.50;;
46835;SDS011;32573;51.290;6.926;2023-04-26T05:51:38;3.95;;;2.10;;
46835;SDS011;32573;51.290;6.926;2023-04-26T05:54:07;4.75;;;2.10;;
46835;SDS011;32573;51.290;6.926;2023-04-26T05:56:37;4.15;;;1.83;;
46835;SDS011;32573;51.290;6.926;2023-04-26T05:59:06;5.85;;;2.40;;
46835;SDS011;32573;51.290;6.926;2023-04-26T06:01:47;4.00;;;1.75;;
46835;SDS011;32573;51.290;6.926;2023-04-26T06:04:16;4.15;;;2.00;;
46835;SDS011;32573;51.290;6.926;2023-04-26T06:06:58;4.07;;;1.70;;
46835;SDS011;32573;51.290;6.926;2023-04-26T06:09:29;4.13;;;1.98;;
46835;SDS011;32573;51.290;6.926;2023-04-26T06:11:59;3.92;;;2.15;;
46835;SDS011;32573;51.290;6.926;2023-04-26T06:14:29;3.95;;;1.95;;
46835;SDS011;32573;51.290;6.926;2023-04-26T06:17:04;5.00;;;2.22;;
46835;SDS011;32573;51.290;6.926;2023-04-26T06:19:34;7.20;;;3.67;;
46835;SDS011;32573;51.290;6.926;2023-04-26T06:22:03;6.60;;;3.10;;
46835;SDS011;32573;51.290;6.926;2023-04-26T06:24:33;5.57;;;2.40;;
46835;SDS011;32573;51.290;6.926;2023-04-26T06:27:02;6.72;;;3.80;;
46835;SDS011;32573;51.290;6.926;2023-04-26T06:29:31;7.43;;;3.40;;
46835;SDS011;32573;51.290;6.926;2023-04-26T06:32:00;5.72;;;2.95;;
46835;SDS011;32573;51.290;6.926;2023-04-26T06:34:31;6.30;;;3.20;;
46835;SDS011;32573;51.290;6.926;2023-04-26T06:36:59;14.00;;;6.13;;
46835;SDS011;32573;51.290;6.926;2023-04-26T06:39:29;11.95;;;4.65;;
46835;SDS011;32573;51.290;6.926;2023-04-26T06:41:58;8.98;;;4.38;;
46835;SDS011;32573;51.290;6.926;2023-04-26T06:44:45;9.18;;;4.22;;
46835;SDS011;32573;51.290;6.926;2023-04-26T06:47:16;7.85;;;4.05;;
46835;SDS011;32573;51.290;6.926;2023-04-26T06:49:47;9.13;;;4.72;;
46835;SDS011;32573;51.290;6.926;2023-04-26T06:52:16;11.02;;;5.18;;
46835;SDS011;32573;51.290;6.926;2023-04-26T06:54:48;10.98;;;5.47;;
46835;SDS011;32573;51.290;6.926;2023-04-26T06:57:24;7.45;;;3.85;;
46835;SDS011;32573;51.290;6.926;2023-04-26T06:59:56;8.63;;;4.63;;
46835;SDS011;32573;51.290;6.926;2023-04-26T07:02:25;6.20;;;3.40;;
46835;SDS011;32573;51.290;6.926;2023-04-26T07:04:56;7.80;;;4.05;;
46835;SDS011;32573;51.290;6.926;2023-04-26T07:07:25;15.40;;;6.57;;
46835;SDS011;32573;51.290;6.926;2023-04-26T07:09:54;9.40;;;4.50;;
46835;SDS011;32573;51.290;6.926;2023-04-26T07:12:23;8.77;;;4.30;;
46835;SDS011;32573;51.290;6.926;2023-04-26T07:14:52;16.02;;;7.07;;
46835;SDS011;32573;51.290;6.926;2023-04-26T07:17:22;11.55;;;5.07;;
46835;SDS011;32573;51.290;6.926;2023-04-26T07:19:51;14.63;;;6.70;;
46835;SDS011;32573;51.290;6.926;2023-04-26T07:22:23;8.98;;;4.75;;
46835;SDS011;32573;51.290;6.926;2023-04-26T07:24:53;10.80;;;4.78;;
46835;SDS011;32573;51.290;6.926;2023-04-26T07:27:22;11.10;;;4.90;;
46835;SDS011;32573;51.290;6.926;2023-04-26T07:29:52;7.93;;;3.70;;
46835;SDS011;32573;51.290;6.926;2023-04-26T07:32:23;10.65;;;4.65;;
46835;SDS011;32573;51.290;6.926;2023-04-26T07:34:52;13.70;;;6.93;;
46835;SDS011;32573;51.290;6.926;2023-04-26T07:37:21;12.57;;;4.93;;
46835;SDS011;32573;51.290;6.926;2023-04-26T07:39:51;9.63;;;4.50;;
46835;SDS011;32573;51.290;6.926;2023-04-26T07:42:21;8.88;;;4.20;;
46835;SDS011;32573;51.290;6.926;2023-04-26T07:44:51;10.10;;;4.70;;
46835;SDS011;32573;51.290;6.926;2023-04-26T07:47:20;12.73;;;5.68;;
46835;SDS011;32573;51.290;6.926;2023-04-26T07:49:51;12.25;;;5.50;;
46835;SDS011;32573;51.290;6.926;2023-04-26T07:52:21;12.25;;;4.68;;
46835;SDS011;32573;51.290;6.926;2023-04-26T07:54:52;9.68;;;3.90;;
46835;SDS011;32573;51.290;6.926;2023-04-26T07:57:21;10.02;;;4.80;;
46835;SDS011;32573;51.290;6.926;2023-04-26T07:59:50;9.18;;;4.10;;
46835;SDS011;32573;51.290;6.926;2023-04-26T08:02:19;11.10;;;3.90;;
46835;SDS011;32573;51.290;6.926;2023-04-26T08:05:08;6.97;;;3.38;;
46835;SDS011;32573;51.290;6.926;2023-04-26T08:07:37;5.55;;;2.80;;
46835;SDS011;32573;51.290;6.926;2023-04-26T08:10:09;8.27;;;3.63;;
46835;SDS011;32573;51.290;6.926;2023-04-26T08:12:39;5.75;;;2.67;;
46835;SDS011;32573;51.290;6.926;2023-04-26T08:15:08;7.53;;;3.00;;
46835;SDS011;32573;51.290;6.926;2023-04-26T08:17:37;5.43;;;2.70;;
46835;SDS011;32573;51.290;6.926;2023-04-26T08:20:07;7.22;;;2.65;;
46835;SDS011;32573;51.290;6.926;2023-04-26T08:22:37;5.30;;;2.70;;
46835;SDS011;32573;51.290;6.926;2023-04-26T08:25:09;8.93;;;3.60;;
46835;SDS011;32573;51.290;6.926;2023-04-26T08:27:41;6.85;;;3.03;;
46835;SDS011;32573;51.290;6.926;2023-04-26T08:30:12;6.65;;;3.25;;
46835;SDS011;32573;51.290;6.926;2023-04-26T08:32:42;8.23;;;3.33;;
46835;SDS011;32573;51.290;6.926;2023-04-26T08:35:14;6.57;;;2.58;;
46835;SDS011;32573;51.290;6.926;2023-04-26T08:37:44;7.72;;;3.00;;
46835;SDS011;32573;51.290;6.926;2023-04-26T08:40:21;5.78;;;2.47;;
46835;SDS011;32573;51.290;6.926;2023-04-26T08:42:51;5.03;;;2.17;;
46835;SDS011;32573;51.290;6.926;2023-04-26T08:45:21;5.93;;;2.25;;
46835;SDS011;32573;51.290;6.926;2023-04-26T08:47:52;6.60;;;2.45;;
46835;SDS011;32573;51.290;6.926;2023-04-26T08:50:24;7.25;;;2.75;;
46835;SDS011;32573;51.290;6.926;2023-04-26T08:52:53;5.93;;;2.25;;
46835;SDS011;32573;51.290;6.926;2023-04-26T08:55:24;5.85;;;2.28;;
46835;SDS011;32573;51.290;6.926;2023-04-26T08:57:54;9.90;;;2.63;;
46835;SDS011;32573;51.290;6.926;2023-04-26T09:00:25;6.97;;;2.13;;
46835;SDS011;32573;51.290;6.926;2023-04-26T09:02:55;5.85;;;1.90;;
46835;SDS011;32573;51.290;6.926;2023-04-26T09:05:23;5.07;;;2.00;;
46835;SDS011;32573;51.290;6.926;2023-04-26T09:07:55;5.28;;;2.17;;
46835;SDS011;32573;51.290;6.926;2023-04-26T09:12:58;6.38;;;2.40;;
46835;SDS011;32573;51.290;6.926;2023-04-26T09:15:28;5.80;;;2.50;;
46835;SDS011;32573;51.290;6.926;2023-04-26T09:20:45;5.88;;;2.08;;
46835;SDS011;32573;51.290;6.926;2023-04-26T09:23:29;8.02;;;2.58;;
46835;SDS011;32573;51.290;6.926;2023-04-26T09:26:15;4.93;;;2.08;;
46835;SDS011;32573;51.290;6.926;2023-04-26T09:28:47;5.63;;;2.00;;
46835;SDS011;32573;51.290;6.926;2023-04-26T09:31:36;5.00;;;1.98;;
46835;SDS011;32573;51.290;6.926;2023-04-26T09:34:08;4.43;;;1.92;;
46835;SDS011;32573;51.290;6.926;2023-04-26T09:36:47;4.07;;;1.63;;
46835;SDS011;32573;51.290;6.926;2023-04-26T09:39:28;4.18;;;1.60;;
46835;SDS011;32573;51.290;6.926;2023-04-26T09:42:03;4.57;;;1.80;;
46835;SDS011;32573;51.290;6.926;2023-04-26T09:44:33;7.40;;;1.73;;
46835;SDS011;32573;51.290;6.926;2023-04-26T09:47:04;5.85;;;2.10;;
46835;SDS011;32573;51.290;6.926;2023-04-26T09:49:43;5.60;;;2.20;;
46835;SDS011;32573;51.290;6.926;2023-04-26T09:52:14;6.38;;;2.40;;
46835;SDS011;32573;51.290;6.926;2023-04-26T09:54:45;6.70;;;2.47;;
46835;SDS011;32573;51.290;6.926;2023-04-26T09:57:17;4.22;;;1.90;;
46835;SDS011;32573;51.290;6.926;2023-04-26T09:59:48;5.60;;;1.90;;
46835;SDS011;32573;51.290;6.926;2023-04-26T10:02:23;4.95;;;1.90;;
46835;SDS011;32573;51.290;6.926;2023-04-26T10:04:54;4.65;;;1.75;;
46835;SDS011;32573;51.290;6.926;2023-04-26T10:07:27;3.30;;;1.50;;
46835;SDS011;32573;51.290;6.926;2023-04-26T10:09:58;4.38;;;1.70;;
46835;SDS011;32573;51.290;6.926;2023-04-26T10:12:29;5.13;;;1.98;;
46835;SDS011;32573;51.290;6.926;2023-04-26T10:14:58;4.75;;;1.77;;
46835;SDS011;32573;51.290;6.926;2023-04-26T10:17:27;7.07;;;2.35;;
46835;SDS011;32573;51.290;6.926;2023-04-26T10:19:56;4.13;;;1.90;;
46835;SDS011;32573;51.290;6.926;2023-04-26T10:22:27;4.28;;;1.50;;
46835;SDS011;32573;51.290;6.926;2023-04-26T10:24:59;3.83;;;1.80;;
46835;SDS011;32573;51.290;6.926;2023-04-26T10:27:51;4.07;;;1.83;;
46835;SDS011;32573;51.290;6.926;2023-04-26T10:30:20;6.45;;;2.10;;
46835;SDS011;32573;51.290;6.926;2023-04-26T10:35:58;4.88;;;1.90;;
46835;SDS011;32573;51.290;6.926;2023-04-26T10:38:28;4.10;;;1.90;;
46835;SDS011;32573;51.290;6.926;2023-04-26T10:47:20;6.35;;;2.00;;
46835;SDS011;32573;51.290;6.926;2023-04-26T10:50:02;3.92;;;1.77;;
46835;SDS011;32573;51.290;6.926;2023-04-26T10:52:37;6.18;;;2.20;;
46835;SDS011;32573;51.290;6.926;2023-04-26T10:55:36;5.88;;;2.60;;
46835;SDS011;32573;51.290;6.926;2023-04-26T10:58:24;5.68;;;2.40;;
46835;SDS011;32573;51.290;6.926;2023-04-26T11:01:07;4.10;;;1.70;;
46835;SDS011;32573;51.290;6.926;2023-04-26T11:04:00;4.45;;;1.77;;
46835;SDS011;32573;51.290;6.926;2023-04-26T11:06:46;4.18;;;2.05;;
46835;SDS011;32573;51.290;6.926;2023-04-26T11:09:33;5.28;;;2.10;;
46835;SDS011;32573;51.290;6.926;2023-04-26T11:12:03;5.50;;;1.98;;
46835;SDS011;32573;51.290;6.926;2023-04-26T11:14:33;3.35;;;1.60;;
46835;SDS011;32573;51.290;6.926;2023-04-26T11:17:03;4.65;;;1.80;;
46835;SDS011;32573;51.290;6.926;2023-04-26T11:19:34;3.58;;;1.65;;
46835;SDS011;32573;51.290;6.926;2023-04-26T11:22:05;3.58;;;1.55;;
46835;SDS011;32573;51.290;6.926;2023-04-26T11:24:35;4.65;;;2.10;;
46835;SDS011;32573;51.290;6.926;2023-04-26T11:27:06;4.43;;;1.80;;
46835;SDS011;32573;51.290;6.926;2023-04-26T11:29:36;3.95;;;1.70;;
46835;SDS011;32573;51.290;6.926;2023-04-26T11:32:07;4.55;;;1.90;;
46835;SDS011;32573;51.290;6.926;2023-04-26T11:34:45;4.70;;;1.70;;
46835;SDS011;32573;51.290;6.926;2023-04-26T11:37:16;4.60;;;1.75;;
46835;SDS011;32573;51.290;6.926;2023-04-26T11:39:45;4.18;;;1.70;;
46835;SDS011;32573;51.290;6.926;2023-04-26T11:42:14;3.67;;;1.48;;
46835;SDS011;32573;51.290;6.926;2023-04-26T11:44:42;2.60;;;1.30;;
46835;SDS011;32573;51.290;6.926;2023-04-26T11:47:15;4.00;;;1.90;;
46835;SDS011;32573;51.290;6.926;2023-04-26T11:49:44;6.80;;;2.20;;
46835;SDS011;32573;51.290;6.926;2023-04-26T11:52:13;5.35;;;2.20;;
46835;SDS011;32573;51.290;6.926;2023-04-26T11:54:42;6.22;;;2.10;;
46835;SDS011;32573;51.290;6.926;2023-04-26T11:57:14;5.20;;;1.90;;
46835;SDS011;32573;51.290;6.926;2023-04-26T11:59:44;3.67;;;1.55;;
46835;SDS011;32573;51.290;6.926;2023-04-26T12:02:13;3.75;;;1.60;;
46835;SDS011;32573;51.290;6.926;2023-04-26T12:04:43;3.97;;;1.48;;
46835;SDS011;32573;51.290;6.926;2023-04-26T12:07:12;4.57;;;1.50;;
46835;SDS011;32573;51.290;6.926;2023-04-26T12:09:49;5.10;;;1.88;;
46835;SDS011;32573;51.290;6.926;2023-04-26T12:12:18;4.65;;;1.60;;
46835;SDS011;32573;51.290;6.926;2023-04-26T12:14:50;3.15;;;1.38;;
46835;SDS011;32573;51.290;6.926;2023-04-26T12:17:19;6.05;;;1.90;;
46835;SDS011;32573;51.290;6.926;2023-04-26T12:19:49;3.17;;;1.60;;
46835;SDS011;32573;51.290;6.926;2023-04-26T12:22:19;3.97;;;1.63;;
46835;SDS011;32573;51.290;6.926;2023-04-26T12:24:48;4.13;;;1.40;;
46835;SDS011;32573;51.290;6.926;2023-04-26T12:27:19;4.40;;;1.98;;
46835;SDS011;32573;51.290;6.926;2023-04-26T12:29:49;3.25;;;1.60;;
46835;SDS011;32573;51.290;6.926;2023-04-26T12:32:17;3.08;;;1.48;;
46835;SDS011;32573;51.290;6.926;2023-04-26T12:34:50;4.95;;;2.13;;
46835;SDS011;32573;51.290;6.926;2023-04-26T12:37:19;4.10;;;1.80;;
46835;SDS011;32573;51.290;6.926;2023-04-26T12:39:50;5.05;;;1.80;;
46835;SDS011;32573;51.290;6.926;2023-04-26T12:42:19;6.60;;;2.20;;
46835;SDS011;32573;51.290;6.926;2023-04-26T12:44:47;6.00;;;1.92;;
46835;SDS011;32573;51.290;6.926;2023-04-26T12:47:16;3.58;;;1.60;;
46835;SDS011;32573;51.290;6.926;2023-04-26T12:49:44;4.70;;;2.08;;
46835;SDS011;32573;51.290;6.926;2023-04-26T12:52:14;5.28;;;1.70;;
46835;SDS011;32573;51.290;6.926;2023-04-26T12:54:43;3.97;;;1.50;;
46835;SDS011;32573;51.290;6.926;2023-04-26T12:57:12;3.63;;;1.65;;
46835;SDS011;32573;51.290;6.926;2023-04-26T12:59:41;5.28;;;2.20;;
46835;SDS011;32573;51.290;6.926;2023-04-26T13:02:10;3.92;;;1.73;;
46835;SDS011;32573;51.290;6.926;2023-04-26T13:04:38;4.03;;;1.95;;
46835;SDS011;32573;51.290;6.926;2023-04-26T13:07:08;5.82;;;2.35;;
46835;SDS011;32573;51.290;6.926;2023-04-26T13:09:37;4.93;;;2.10;;
46835;SDS011;32573;51.290;6.926;2023-04-26T13:12:06;4.28;;;1.92;;
46835;SDS011;32573;51.290;6.926;2023-04-26T13:14:35;4.18;;;2.00;;
46835;SDS011;32573;51.290;6.926;2023-04-26T13:17:05;5.45;;;1.80;;
46835;SDS011;32573;51.290;6.926;2023-04-26T13:19:35;3.80;;;1.83;;
46835;SDS011;32573;51.290;6.926;2023-04-26T13:22:03;4.85;;;1.88;;
46835;SDS011;32573;51.290;6.926;2023-04-26T13:24:34;3.53;;;1.70;;
46835;SDS011;32573;51.290;6.926;2023-04-26T13:27:04;7.00;;;2.03;;
46835;SDS011;32573;51.290;6.926;2023-04-26T13:29:33;4.38;;;2.08;;
46835;SDS011;32573;51.290;6.926;2023-04-26T13:32:04;4.75;;;1.95;;
46835;SDS011;32573;51.290;6.926;2023-04-26T13:34:32;3.45;;;1.73;;
46835;SDS011;32573;51.290;6.926;2023-04-26T13:37:04;6.18;;;2.60;;
46835;SDS011;32573;51.290;6.926;2023-04-26T13:39:32;4.22;;;2.00;;
46835;SDS011;32573;51.290;6.926;2023-04-26T13:42:02;6.22;;;1.88;;
46835;SDS011;32573;51.290;6.926;2023-04-26T13:44:33;4.18;;;1.85;;
46835;SDS011;32573;51.290;6.926;2023-04-26T13:47:02;3.67;;;1.75;;
46835;SDS011;32573;51.290;6.926;2023-04-26T13:49:32;3.90;;;1.98;;
46835;SDS011;32573;51.290;6.926;2023-04-26T13:52:00;4.50;;;1.83;;
46835;SDS011;32573;51.290;6.926;2023-04-26T13:54:29;5.78;;;2.08;;
46835;SDS011;32573;51.290;6.926;2023-04-26T13:56:58;4.90;;;1.70;;
46835;SDS011;32573;51.290;6.926;2023-04-26T13:59:28;3.47;;;1.45;;
46835;SDS011;32573;51.290;6.926;2023-04-26T14:01:57;4.60;;;1.55;;
46835;SDS011;32573;51.290;6.926;2023-04-26T14:04:26;3.53;;;1.50;;
46835;SDS011;32573;51.290;6.926;2023-04-26T14:06:55;4.85;;;1.90;;
46835;SDS011;32573;51.290;6.926;2023-04-26T14:09:24;4.32;;;1.95;;
46835;SDS011;32573;51.290;6.926;2023-04-26T14:11:53;3.90;;;1.88;;
46835;SDS011;32573;51.290;6.926;2023-04-26T14:14:35;4.90;;;2.10;;
46835;SDS011;32573;51.290;6.926;2023-04-26T14:17:04;3.70;;;1.83;;
46835;SDS011;32573;51.290;6.926;2023-04-26T14:19:32;5.38;;;2.40;;
46835;SDS011;32573;51.290;6.926;2023-04-26T14:22:01;3.60;;;1.77;;
46835;SDS011;32573;51.290;6.926;2023-04-26T14:24:30;3.65;;;2.13;;
46835;SDS011;32573;51.290;6.926;2023-04-26T14:26:59;4.63;;;2.25;;
46835;SDS011;32573;51.290;6.926;2023-04-26T14:29:29;5.05;;;2.17;;
46835;SDS011;32573;51.290;6.926;2023-04-26T14:31:59;4.25;;;2.25;;
46835;SDS011;32573;51.290;6.926;2023-04-26T14:34:28;3.55;;;2.00;;
46835;SDS011;32573;51.290;6.926;2023-04-26T14:36:57;3.40;;;1.75;;
46835;SDS011;32573;51.290;6.926;2023-04-26T14:39:27;4.63;;;2.17;;
46835;SDS011;32573;51.290;6.926;2023-04-26T14:41:56;4.60;;;2.10;;
46835;SDS011;32573;51.290;6.926;2023-04-26T14:44:25;3.67;;;1.80;;
46835;SDS011;32573;51.290;6.926;2023-04-26T14:46:53;3.78;;;1.90;;
46835;SDS011;32573;51.290;6.926;2023-04-26T14:49:23;4.30;;;2.20;;
46835;SDS011;32573;51.290;6.926;2023-04-26T14:51:52;5.05;;;1.90;;
46835;SDS011;32573;51.290;6.926;2023-04-26T14:54:21;4.65;;;2.10;;
46835;SDS011;32573;51.290;6.926;2023-04-26T14:56:50;4.13;;;2.10;;
46835;SDS011;32573;51.290;6.926;2023-04-26T14:59:19;4.82;;;2.20;;
46835;SDS011;32573;51.290;6.926;2023-04-26T15:01:48;4.90;;;2.60;;
46835;SDS011;32573;51.290;6.926;2023-04-26T15:04:19;6.97;;;2.10;;
46835;SDS011;32573;51.290;6.926;2023-04-26T15:06:50;4.93;;;1.98;;
46835;SDS011;32573;51.290;6.926;2023-04-26T15:09:19;4.57;;;1.83;;
46835;SDS011;32573;51.290;6.926;2023-04-26T15:11:48;5.20;;;2.00;;
46835;SDS011;32573;51.290;6.926;2023-04-26T15:14:16;4.97;;;1.90;;
46835;SDS011;32573;51.290;6.926;2023-04-26T15:16:45;3.83;;;1.60;;
46835;SDS011;32573;51.290;6.926;2023-04-26T15:19:13;4.43;;;1.95;;
46835;SDS011;32573;51.290;6.926;2023-04-26T15:21:42;5.97;;;2.35;;